Kalona, Iowa
Current Conditions -  °F | °C
As of 2:52 AM on Saturday 29 Nov 2014 (Local Time) from KIOW Reporting Station
Clear Clear  
Wind Chill: 30°   Ceiling: Unl
Heat Index: 30°   Visibility: 8mi
Dew Point: 28°   Wind: 3mph
Humidity: 92%   Direction: 120°ESE
Pressure: 29.68"   Gusts: NA
Location:  41.48°N, 91.71°W
Report Text: KIOW 290852Z AUTO 12003KT 8SM CLR M01/M02 A2968 RMK AO2 SLP056 T10111022 56019
Loading
Personal Weather Stations






























Interactive Weather Map New forecast layout! Learn more

10-Day Weather Forecast

Advertisements
Track Severe Weather on mobile